createdAt,value
2023-11-16T00:01:28.641Z,98241.73
2023-11-16T00:03:55.676Z,98243.13
2023-11-16T00:06:22.772Z,98243.04
2023-11-16T00:08:49.717Z,98244.40
2023-11-16T00:11:18.299Z,98249.98
2023-11-16T00:13:46.757Z,98256.92
2023-11-16T00:16:15.877Z,98257.63
2023-11-16T00:18:43.739Z,98266.33
2023-11-16T00:21:10.837Z,98270.48
2023-11-16T00:23:38.257Z,98270.34
2023-11-16T00:26:05.197Z,98270.04
2023-11-16T00:28:32.318Z,98273.91
2023-11-16T00:30:59.319Z,98270.29
2023-11-16T00:33:26.621Z,98270.17
2023-11-16T00:35:58.779Z,98278.41
2023-11-16T00:38:27.988Z,98281.56
2023-11-16T00:40:57.718Z,98279.08
2023-11-16T00:43:27.939Z,98281.31
2023-11-16T00:45:56.402Z,98279.02
2023-11-16T00:48:25.284Z,98279.37
2023-11-16T00:50:52.112Z,98277.71
2023-11-16T00:53:19.013Z,98276.80
2023-11-16T00:55:46.001Z,98280.52
2023-11-16T00:58:12.994Z,98284.30
2023-11-16T01:00:40.089Z,98282.59
2023-11-16T01:03:08.039Z,98289.33
2023-11-16T01:05:35.245Z,98289.39
2023-11-16T01:08:03.896Z,98290.31
2023-11-16T01:10:31.145Z,98292.77
2023-11-16T01:12:58.188Z,98298.57
2023-11-16T01:15:25.788Z,98302.39
2023-11-16T01:17:52.886Z,98308.39
2023-11-16T01:20:20.324Z,98306.48
2023-11-16T01:23:01.706Z,98302.67
2023-11-16T01:25:31.318Z,98298.61
2023-11-16T01:27:58.470Z,98301.20
2023-11-16T01:30:25.997Z,98297.71
2023-11-16T01:32:53.651Z,98299.35
2023-11-16T01:35:22.082Z,98302.95
2023-11-16T01:37:53.034Z,98300.80
2023-11-16T01:40:20.487Z,98304.09
2023-11-16T01:42:47.387Z,98305.83
2023-11-16T01:45:26.728Z,98301.80
2023-11-16T01:47:53.715Z,98299.98
2023-11-16T01:50:21.873Z,98305.90
2023-11-16T01:52:49.010Z,98301.12
2023-11-16T01:55:16.963Z,98303.16
2023-11-16T01:57:43.992Z,98312.24
2023-11-16T02:00:15.511Z,98315.03
2023-11-16T02:02:45.435Z,98312.66
2023-11-16T02:05:12.330Z,98313.86
2023-11-16T02:07:39.251Z,98317.35
2023-11-16T02:10:06.380Z,98322.31
2023-11-16T02:12:33.309Z,98323.53
2023-11-16T02:15:00.150Z,98332.52
2023-11-16T02:17:26.977Z,98332.14
2023-11-16T02:19:54.945Z,98334.13
2023-11-16T02:22:24.775Z,98335.86
2023-11-16T02:24:51.509Z,98339.41
2023-11-16T02:27:18.506Z,98341.91
2023-11-16T02:29:46.737Z,98343.36
2023-11-16T02:32:13.670Z,98349.25
2023-11-16T02:34:40.722Z,98356.09
2023-11-16T02:37:07.662Z,98360.17
2023-11-16T02:39:34.514Z,98361.50
2023-11-16T02:42:03.151Z,98367.64
2023-11-16T02:44:31.255Z,98365.77
2023-11-16T02:46:59.619Z,98366.55
2023-11-16T02:49:26.600Z,98372.70
2023-11-16T02:51:53.379Z,98381.73
2023-11-16T02:54:20.149Z,98385.08
2023-11-16T02:56:47.248Z,98384.09
2023-11-16T02:59:14.142Z,98389.98
2023-11-16T03:01:41.584Z,98391.83
2023-11-16T03:04:08.420Z,98392.51
2023-11-16T03:06:35.620Z,98389.48
2023-11-16T03:09:03.865Z,98391.21
2023-11-16T03:11:31.027Z,98391.73
2023-11-16T03:13:58.302Z,98394.36
2023-11-16T03:16:26.612Z,98394.77
2023-11-16T03:18:53.457Z,98403.27
2023-11-16T03:21:20.368Z,98402.91
2023-11-16T03:23:47.170Z,98403.48
2023-11-16T03:26:14.028Z,98400.51
2023-11-16T03:28:42.617Z,98399.77
2023-11-16T03:31:11.656Z,98403.83
2023-11-16T03:33:40.074Z,98398.41
2023-11-16T03:36:07.664Z,98400.91
2023-11-16T03:38:35.787Z,98403.41
2023-11-16T03:41:02.596Z,98404.66
2023-11-16T03:43:29.585Z,98402.36
2023-11-16T03:45:56.478Z,98401.98
2023-11-16T03:48:23.356Z,98407.48
2023-11-16T03:50:50.279Z,98410.80
2023-11-16T03:53:17.173Z,98413.25
2023-11-16T03:55:44.297Z,98418.36
2023-11-16T03:58:11.090Z,98420.55
2023-11-16T04:00:38.828Z,98426.15
2023-11-16T04:03:05.854Z,98428.34
2023-11-16T04:05:34.002Z,98431.96
2023-11-16T04:08:01.324Z,98429.59
2023-11-16T04:10:28.163Z,98433.54
2023-11-16T04:12:55.328Z,98437.52
2023-11-16T04:15:23.404Z,98444.13
2023-11-16T04:17:50.700Z,98444.94
2023-11-16T04:20:17.669Z,98444.15
2023-11-16T04:22:45.309Z,98448.34
2023-11-16T04:25:28.920Z,98448.64
2023-11-16T04:27:59.777Z,98450.69
2023-11-16T04:30:28.872Z,98452.65
2023-11-16T04:32:56.371Z,98453.20
2023-11-16T04:35:23.135Z,98454.27
2023-11-16T04:37:51.002Z,98456.61
2023-11-16T04:40:17.857Z,98453.11
2023-11-16T04:42:45.123Z,98460.21
2023-11-16T04:45:12.627Z,98468.15
2023-11-16T04:47:44.898Z,98469.02
2023-11-16T04:50:14.372Z,98473.24
2023-11-16T04:52:41.356Z,98474.73
2023-11-16T04:55:10.225Z,98476.55
2023-11-16T04:57:39.186Z,98475.91
2023-11-16T05:00:14.145Z,98479.61
2023-11-16T05:02:41.352Z,98483.56
2023-11-16T05:05:08.499Z,98491.34
2023-11-16T05:07:35.533Z,98493.40
2023-11-16T05:10:02.550Z,98501.59
2023-11-16T05:12:30.182Z,98501.46
2023-11-16T05:14:57.041Z,98504.95
2023-11-16T05:17:24.146Z,98505.14
2023-11-16T05:19:50.979Z,98501.09
2023-11-16T05:22:18.081Z,98497.73
2023-11-16T05:24:45.043Z,98506.60
2023-11-16T05:27:12.281Z,98511.43
2023-11-16T05:29:39.192Z,98512.13
2023-11-16T05:32:07.339Z,98519.99
2023-11-16T05:34:34.272Z,98522.67
2023-11-16T05:37:01.133Z,98525.08
2023-11-16T05:39:28.251Z,98529.96
2023-11-16T05:41:55.021Z,98526.20
2023-11-16T05:44:23.058Z,98532.23
2023-11-16T05:46:50.313Z,98536.93
2023-11-16T05:49:17.200Z,98539.92
2023-11-16T05:51:44.163Z,98544.70
2023-11-16T05:54:11.071Z,98548.37
2023-11-16T05:56:48.818Z,98547.06
2023-11-16T05:59:15.780Z,98545.20
2023-11-16T06:01:46.238Z,98549.35
2023-11-16T06:04:13.356Z,98550.31
2023-11-16T06:06:40.264Z,98547.04
2023-11-16T06:09:07.153Z,98547.67
2023-11-16T06:11:33.921Z,98549.94
2023-11-16T06:14:01.156Z,98554.64
2023-11-16T06:16:28.171Z,98563.43
2023-11-16T06:18:55.211Z,98567.92
2023-11-16T06:21:22.391Z,98571.64
2023-11-16T06:23:49.438Z,98575.86
2023-11-16T06:26:16.343Z,98580.27
2023-11-16T06:28:43.273Z,98576.55
2023-11-16T06:31:10.514Z,98569.17
2023-11-16T06:33:37.579Z,98571.44
2023-11-16T06:36:04.903Z,98575.13
2023-11-16T06:38:31.725Z,98583.09
2023-11-16T06:40:59.435Z,98591.36
2023-11-16T06:43:27.058Z,98589.77
2023-11-16T06:45:55.806Z,98597.55
2023-11-16T06:48:22.618Z,98606.97
2023-11-16T06:50:51.355Z,98606.77
2023-11-16T06:53:18.264Z,98609.16
2023-11-16T06:55:45.027Z,98609.52
2023-11-16T06:58:12.730Z,98609.90
2023-11-16T07:00:39.750Z,98613.44
2023-11-16T07:03:07.183Z,98618.44
2023-11-16T07:05:36.191Z,98618.23
2023-11-16T07:08:04.514Z,98611.52
2023-11-16T07:10:31.523Z,98615.33
2023-11-16T07:13:02.392Z,98616.41
2023-11-16T07:15:29.314Z,98626.58
2023-11-16T07:17:56.351Z,98626.89
2023-11-16T07:20:23.391Z,98631.95
2023-11-16T07:22:50.300Z,98631.23
2023-11-16T07:25:21.168Z,98635.21
2023-11-16T07:27:50.654Z,98637.88
2023-11-16T07:30:17.813Z,98640.02
2023-11-16T07:32:45.431Z,98637.54
2023-11-16T07:35:18.048Z,98641.34
2023-11-16T07:37:45.715Z,98636.75
2023-11-16T07:40:13.649Z,98647.14
2023-11-16T07:42:40.845Z,98649.23
2023-11-16T07:45:11.664Z,98655.70
2023-11-16T07:47:42.980Z,98662.33
2023-11-16T07:50:11.865Z,98660.64
2023-11-16T07:52:45.352Z,98653.95
2023-11-16T07:55:16.782Z,98656.91
2023-11-16T07:57:48.272Z,98654.70
2023-11-16T08:00:22.851Z,98657.80
2023-11-16T08:03:08.519Z,98656.23
2023-11-16T08:05:37.704Z,98658.27
2023-11-16T08:08:07.861Z,98660.20
2023-11-16T08:10:34.785Z,98660.18
2023-11-16T08:13:01.761Z,98661.33
2023-11-16T08:15:28.603Z,98664.41
2023-11-16T08:17:55.507Z,98664.91
2023-11-16T08:20:25.093Z,98674.00
2023-11-16T08:22:52.648Z,98680.86
2023-11-16T08:25:22.804Z,98680.04
2023-11-16T08:27:50.569Z,98680.89
2023-11-16T08:30:18.115Z,98678.85
2023-11-16T08:32:46.678Z,98675.02
2023-11-16T08:35:16.262Z,98680.37
2023-11-16T08:37:43.508Z,98678.83
2023-11-16T08:40:10.527Z,98677.03
2023-11-16T08:42:47.700Z,98676.84
2023-11-16T08:45:19.240Z,98682.11
2023-11-16T08:47:47.581Z,98682.27
2023-11-16T08:50:16.734Z,98679.94
2023-11-16T08:52:46.689Z,98674.85
2023-11-16T08:55:14.215Z,98676.43
2023-11-16T08:57:48.162Z,98678.27
2023-11-16T09:00:34.066Z,98677.02
2023-11-16T09:03:02.084Z,98673.52
2023-11-16T09:05:29.803Z,98670.74
2023-11-16T09:07:56.743Z,98672.91
2023-11-16T09:10:24.824Z,98678.12
2023-11-16T09:12:55.867Z,98675.83
2023-11-16T09:15:23.146Z,98678.22
2023-11-16T09:17:50.681Z,98675.73
2023-11-16T09:20:23.468Z,98680.27
2023-11-16T09:22:51.191Z,98676.01
2023-11-16T09:25:24.480Z,98668.33
2023-11-16T09:27:55.013Z,98672.94
2023-11-16T09:30:23.089Z,98671.23
2023-11-16T09:32:56.550Z,98666.41
2023-11-16T09:35:23.998Z,98658.95
2023-11-16T09:37:52.826Z,98654.86
2023-11-16T09:40:24.784Z,98657.09
2023-11-16T09:43:01.054Z,98653.21
2023-11-16T09:45:28.712Z,98657.39
2023-11-16T09:48:01.809Z,98652.54
2023-11-16T09:50:29.222Z,98649.70
2023-11-16T09:52:57.050Z,98654.65
2023-11-16T09:55:24.454Z,98652.45
2023-11-16T09:57:55.921Z,98643.23
2023-11-16T10:00:24.365Z,98636.94
2023-11-16T10:02:54.004Z,98633.59
2023-11-16T10:05:30.621Z,98633.52
2023-11-16T10:07:58.725Z,98628.19
2023-11-16T10:10:34.120Z,98629.73
2023-11-16T10:13:01.218Z,98627.47
2023-11-16T10:15:28.314Z,98627.34
2023-11-16T10:17:56.490Z,98631.54
2023-11-16T10:20:24.486Z,98628.70
2023-11-16T10:22:54.674Z,98625.01
2023-11-16T10:25:23.788Z,98630.43
2023-11-16T10:27:50.734Z,98632.27
2023-11-16T10:30:19.020Z,98632.61
2023-11-16T10:32:49.830Z,98632.50
2023-11-16T10:35:18.397Z,98631.64
2023-11-16T10:37:45.514Z,98629.96
2023-11-16T10:40:13.424Z,98635.04
2023-11-16T10:42:43.775Z,98638.30
2023-11-16T10:45:15.497Z,98639.00
2023-11-16T10:47:43.979Z,98630.98
2023-11-16T10:50:11.442Z,98631.44
2023-11-16T10:52:39.835Z,98627.40
2023-11-16T10:55:14.281Z,98625.22
2023-11-16T10:57:41.427Z,98619.61
2023-11-16T11:00:17.304Z,98614.64
2023-11-16T11:02:46.247Z,98609.31
2023-11-16T11:05:15.871Z,98612.17
2023-11-16T11:07:57.610Z,98606.57
2023-11-16T11:10:26.754Z,98606.39
2023-11-16T11:13:00.921Z,98612.25
2023-11-16T11:15:31.974Z,98606.20
2023-11-16T11:17:59.670Z,98612.77
2023-11-16T11:20:37.469Z,98612.16
2023-11-16T11:23:15.609Z,98616.16
2023-11-16T11:25:42.958Z,98622.75
2023-11-16T11:28:11.895Z,98619.73
2023-11-16T11:30:49.120Z,98616.42
2023-11-16T11:33:23.020Z,98618.35
2023-11-16T11:35:53.013Z,98615.58
2023-11-16T11:38:27.637Z,98625.10
2023-11-16T11:40:58.603Z,98626.76
2023-11-16T11:43:25.578Z,98624.36
2023-11-16T11:45:53.087Z,98626.74
2023-11-16T11:48:23.606Z,98627.54
2023-11-16T11:50:55.738Z,98629.71
2023-11-16T11:53:27.904Z,98633.80
2023-11-16T11:55:55.776Z,98633.13
2023-11-16T11:58:22.719Z,98632.92
2023-11-16T12:00:50.644Z,98631.73
2023-11-16T12:03:21.186Z,98634.15
2023-11-16T12:06:03.080Z,98635.30
2023-11-16T12:08:40.088Z,98633.73
2023-11-16T12:11:11.324Z,98634.82
2023-11-16T12:13:39.332Z,98628.45
2023-11-16T12:16:07.068Z,98631.77
2023-11-16T12:18:38.474Z,98634.77
2023-11-16T12:21:11.235Z,98634.06
2023-11-16T12:23:54.308Z,98632.69
2023-11-16T12:26:28.401Z,98628.65
2023-11-16T12:28:56.151Z,98630.84
2023-11-16T12:31:27.260Z,98631.08
2023-11-16T12:33:57.900Z,98625.46
2023-11-16T12:36:25.949Z,98626.62
2023-11-16T12:38:53.718Z,98632.73
2023-11-16T12:41:23.766Z,98630.04
2023-11-16T12:43:51.883Z,98627.11
2023-11-16T12:46:20.120Z,98627.13
2023-11-16T12:48:46.989Z,98625.74
2023-11-16T12:51:19.685Z,98619.91
2023-11-16T12:53:46.614Z,98618.67
2023-11-16T12:56:15.788Z,98617.66
2023-11-16T12:58:43.636Z,98618.81
2023-11-16T13:01:14.176Z,98611.42
2023-11-16T13:03:49.543Z,98605.73
2023-11-16T13:06:19.777Z,98605.08
2023-11-16T13:08:47.673Z,98606.09
2023-11-16T13:11:14.675Z,98607.29
2023-11-16T13:13:42.030Z,98608.00
2023-11-16T13:16:09.490Z,98608.27
2023-11-16T13:18:36.788Z,98613.58
2023-11-16T13:21:10.198Z,98619.05
2023-11-16T13:23:38.458Z,98619.39
2023-11-16T13:26:05.221Z,98623.55
2023-11-16T13:28:33.384Z,98622.27
2023-11-16T13:31:01.704Z,98623.06
2023-11-16T13:33:28.680Z,98622.02
2023-11-16T13:35:56.060Z,98616.04
2023-11-16T13:38:23.954Z,98615.02
2023-11-16T13:40:51.051Z,98617.86
2023-11-16T13:43:18.242Z,98622.28
2023-11-16T13:45:45.704Z,98627.14
2023-11-16T13:48:13.421Z,98629.09
2023-11-16T13:50:42.377Z,98626.41
2023-11-16T13:53:10.487Z,98627.95
2023-11-16T13:55:37.266Z,98628.38
2023-11-16T13:58:04.558Z,98628.84
2023-11-16T14:00:32.609Z,98624.30
2023-11-16T14:02:59.813Z,98625.75
2023-11-16T14:05:26.813Z,98626.75
2023-11-16T14:07:54.158Z,98626.45
2023-11-16T14:10:24.609Z,98620.80
2023-11-16T14:12:55.207Z,98619.73
2023-11-16T14:15:22.949Z,98614.45
2023-11-16T14:17:50.001Z,98616.38
2023-11-16T14:20:17.441Z,98611.52
2023-11-16T14:22:45.275Z,98610.52
2023-11-16T14:25:12.179Z,98606.19
2023-11-16T14:27:39.269Z,98603.35
2023-11-16T14:30:06.922Z,98610.02
2023-11-16T14:32:34.533Z,98612.41
2023-11-16T14:35:14.444Z,98609.91
2023-11-16T14:37:46.988Z,98602.09
2023-11-16T14:40:14.449Z,98606.80
2023-11-16T14:42:41.508Z,98605.06
2023-11-16T14:45:08.992Z,98602.63
2023-11-16T14:47:39.701Z,98598.23
2023-11-16T14:50:13.285Z,98592.27
2023-11-16T14:52:40.144Z,98582.87
2023-11-16T14:55:07.499Z,98575.17
2023-11-16T14:57:34.978Z,98576.84
2023-11-16T15:00:01.985Z,98578.70
2023-11-16T15:02:28.928Z,98574.16
2023-11-16T15:05:02.727Z,98578.69
2023-11-16T15:07:35.474Z,98591.80
2023-11-16T15:10:05.660Z,98596.81
2023-11-16T15:12:34.067Z,98593.87
2023-11-16T15:15:01.132Z,98603.31
2023-11-16T15:17:28.248Z,98602.80
2023-11-16T15:19:55.256Z,98605.38
2023-11-16T15:22:22.668Z,98615.92
2023-11-16T15:24:50.352Z,98613.44
2023-11-16T15:27:17.342Z,98610.86
2023-11-16T15:29:46.345Z,98613.30
2023-11-16T15:32:19.584Z,98618.34
2023-11-16T15:34:46.619Z,98614.86
2023-11-16T15:37:13.628Z,98616.75
2023-11-16T15:39:40.669Z,98608.36
2023-11-16T15:42:07.707Z,98606.98
2023-11-16T15:44:34.643Z,98603.69
2023-11-16T15:47:01.678Z,98594.80
2023-11-16T15:49:29.515Z,98597.56
2023-11-16T15:51:56.641Z,98598.05
2023-11-16T15:54:23.616Z,98605.85
2023-11-16T15:56:53.543Z,98605.11
2023-11-16T15:59:20.607Z,98607.92
2023-11-16T16:01:48.318Z,98611.02
2023-11-16T16:04:15.591Z,98612.02
2023-11-16T16:06:43.053Z,98616.08
2023-11-16T16:09:10.225Z,98618.34
2023-11-16T16:11:37.238Z,98616.38
2023-11-16T16:14:04.245Z,98616.20
2023-11-16T16:16:32.690Z,98613.34
2023-11-16T16:19:01.756Z,98615.70
2023-11-16T16:21:29.007Z,98617.91
2023-11-16T16:23:56.070Z,98618.30
2023-11-16T16:26:23.127Z,98622.66
2023-11-16T16:28:49.979Z,98622.50
2023-11-16T16:31:21.832Z,98619.92
2023-11-16T16:33:49.453Z,98621.61
2023-11-16T16:36:16.350Z,98621.91
2023-11-16T16:38:43.264Z,98620.41
2023-11-16T16:41:13.143Z,98620.44
2023-11-16T16:43:43.079Z,98620.30
2023-11-16T16:46:17.847Z,98617.05
2023-11-16T16:48:45.855Z,98616.30
2023-11-16T16:51:13.074Z,98613.80
2023-11-16T16:53:40.013Z,98617.67
2023-11-16T16:56:07.110Z,98613.92
2023-11-16T16:58:34.246Z,98615.55
2023-11-16T17:01:01.143Z,98614.58
2023-11-16T17:03:28.202Z,98613.34
2023-11-16T17:05:55.321Z,98615.77
2023-11-16T17:08:22.215Z,98616.52
2023-11-16T17:10:49.035Z,98615.24
2023-11-16T17:13:15.977Z,98612.38
2023-11-16T17:15:44.453Z,98609.86
2023-11-16T17:18:11.443Z,98612.55
2023-11-16T17:20:38.715Z,98611.02
2023-11-16T17:23:08.446Z,98611.29
2023-11-16T17:25:35.392Z,98610.92
2023-11-16T17:28:02.311Z,98606.06
2023-11-16T17:30:29.236Z,98607.48
2023-11-16T17:32:56.442Z,98609.89
2023-11-16T17:35:23.404Z,98609.88
2023-11-16T17:37:51.627Z,98614.66
2023-11-16T17:40:26.251Z,98614.08
2023-11-16T17:42:53.472Z,98612.98
2023-11-16T17:45:24.529Z,98609.27
2023-11-16T17:47:53.481Z,98604.48
2023-11-16T17:50:21.378Z,98607.39
2023-11-16T17:52:51.040Z,98604.59
2023-11-16T17:55:19.897Z,98602.86
2023-11-16T17:57:47.700Z,98604.88
2023-11-16T18:00:15.837Z,98599.85
2023-11-16T18:02:42.995Z,98599.70
2023-11-16T18:05:13.613Z,98596.44
2023-11-16T18:07:42.728Z,98594.34
2023-11-16T18:10:10.489Z,98593.80
2023-11-16T18:12:40.897Z,98583.94
2023-11-16T18:15:08.049Z,98582.48
2023-11-16T18:17:35.324Z,98579.60
2023-11-16T18:20:05.308Z,98576.20
2023-11-16T18:22:32.955Z,98572.13
2023-11-16T18:25:01.478Z,98569.19
2023-11-16T18:27:29.143Z,98561.91
2023-11-16T18:29:56.038Z,98562.52
2023-11-16T18:32:23.459Z,98560.56
2023-11-16T18:34:50.719Z,98563.27
2023-11-16T18:37:17.897Z,98564.27
2023-11-16T18:39:44.893Z,98562.95
2023-11-16T18:42:13.251Z,98558.01
2023-11-16T18:44:40.635Z,98555.04
2023-11-16T18:47:08.388Z,98553.44
2023-11-16T18:49:35.783Z,98549.07
2023-11-16T18:52:03.232Z,98544.63
2023-11-16T18:54:31.743Z,98541.10
2023-11-16T18:56:59.451Z,98545.58
2023-11-16T18:59:26.539Z,98543.16
2023-11-16T19:01:56.999Z,98552.23
2023-11-16T19:04:25.464Z,98549.35
2023-11-16T19:06:52.383Z,98546.09
2023-11-16T19:09:22.648Z,98544.27
2023-11-16T19:11:51.312Z,98544.67
2023-11-16T19:14:20.570Z,98540.33
2023-11-16T19:16:51.692Z,98543.57
2023-11-16T19:19:18.474Z,98540.52
2023-11-16T19:21:45.517Z,98542.20
2023-11-16T19:24:13.455Z,98541.91
2023-11-16T19:26:41.577Z,98538.73
2023-11-16T19:29:12.108Z,98541.52
2023-11-16T19:31:39.301Z,98544.98
2023-11-16T19:34:07.116Z,98545.66
2023-11-16T19:36:35.520Z,98548.98
2023-11-16T19:39:08.028Z,98557.60
2023-11-16T19:41:42.730Z,98558.10
2023-11-16T19:44:09.716Z,98557.94
2023-11-16T19:46:36.859Z,98554.18
2023-11-16T19:49:04.448Z,98550.86
2023-11-16T19:51:32.660Z,98547.08
2023-11-16T19:54:03.887Z,98550.17
2023-11-16T19:56:30.708Z,98548.45
2023-11-16T19:58:58.487Z,98541.80
2023-11-16T20:01:29.119Z,98538.06
2023-11-16T20:03:56.708Z,98539.47
2023-11-16T20:06:25.404Z,98541.61
2023-11-16T20:08:52.449Z,98550.45
2023-11-16T20:11:19.316Z,98554.77
2023-11-16T20:13:46.328Z,98554.55
2023-11-16T20:16:15.166Z,98557.27
2023-11-16T20:18:46.332Z,98559.36
2023-11-16T20:21:13.548Z,98561.98
2023-11-16T20:23:41.764Z,98566.02
2023-11-16T20:26:12.001Z,98561.66
2023-11-16T20:28:39.333Z,98560.08
2023-11-16T20:31:06.180Z,98555.85
2023-11-16T20:33:33.373Z,98562.30
2023-11-16T20:36:01.511Z,98561.95
2023-11-16T20:38:28.413Z,98560.41
2023-11-16T20:40:55.336Z,98556.64
2023-11-16T20:43:22.468Z,98555.75
2023-11-16T20:45:49.388Z,98553.16
2023-11-16T20:48:16.408Z,98550.58
2023-11-16T20:50:43.630Z,98549.68
2023-11-16T20:53:12.606Z,98550.81
2023-11-16T20:55:39.557Z,98549.29
2023-11-16T20:58:06.434Z,98554.02
2023-11-16T21:00:33.356Z,98555.61
2023-11-16T21:03:00.408Z,98556.81
2023-11-16T21:05:29.188Z,98556.52
2023-11-16T21:07:56.145Z,98556.86
2023-11-16T21:10:23.550Z,98556.73
2023-11-16T21:12:50.560Z,98548.30
2023-11-16T21:15:19.386Z,98542.62
2023-11-16T21:17:46.275Z,98541.13
2023-11-16T21:20:13.792Z,98538.14
2023-11-16T21:22:42.071Z,98533.69
2023-11-16T21:25:10.129Z,98534.75
2023-11-16T21:27:37.666Z,98531.14
2023-11-16T21:30:10.398Z,98530.12
2023-11-16T21:32:38.495Z,98531.10
2023-11-16T21:35:13.411Z,98527.46
2023-11-16T21:37:46.677Z,98514.99
2023-11-16T21:40:14.244Z,98506.13
2023-11-16T21:42:42.088Z,98499.94
2023-11-16T21:45:10.687Z,98494.75
2023-11-16T21:47:39.358Z,98478.38
2023-11-16T21:50:06.756Z,98472.63
2023-11-16T21:52:33.770Z,98478.20
2023-11-16T21:55:00.660Z,98481.62
2023-11-16T21:57:27.600Z,98477.52
2023-11-16T21:59:55.793Z,98480.40
2023-11-16T22:02:22.809Z,98477.16
2023-11-16T22:04:49.875Z,98465.73
2023-11-16T22:07:16.876Z,98458.77
2023-11-16T22:09:43.841Z,98453.57
2023-11-16T22:12:10.671Z,98453.66
2023-11-16T22:14:37.428Z,98451.66
2023-11-16T22:17:05.125Z,98445.79
2023-11-16T22:19:32.930Z,98447.36
2023-11-16T22:21:59.805Z,98445.63
2023-11-16T22:24:26.651Z,98447.20
2023-11-16T22:26:53.632Z,98450.45
2023-11-16T22:29:20.544Z,98452.02
2023-11-16T22:31:47.600Z,98446.13
2023-11-16T22:34:14.552Z,98436.14
2023-11-16T22:36:41.585Z,98429.11
2023-11-16T22:39:09.907Z,98428.05
2023-11-16T22:41:36.859Z,98418.08
2023-11-16T22:44:03.793Z,98418.59
2023-11-16T22:46:30.981Z,98413.09
2023-11-16T22:48:59.055Z,98410.31
2023-11-16T22:51:26.453Z,98399.77
2023-11-16T22:53:53.344Z,98394.82
2023-11-16T22:56:20.097Z,98386.80
2023-11-16T22:58:46.933Z,98382.21
2023-11-16T23:01:14.243Z,98375.77
2023-11-16T23:03:41.723Z,98369.87
2023-11-16T23:06:08.809Z,98370.85
2023-11-16T23:08:35.689Z,98364.20
2023-11-16T23:11:02.494Z,98357.42
2023-11-16T23:13:29.587Z,98355.78
2023-11-16T23:15:56.641Z,98363.52
2023-11-16T23:18:23.497Z,98363.46
2023-11-16T23:20:50.377Z,98363.21
2023-11-16T23:23:17.990Z,98358.13
2023-11-16T23:25:46.340Z,98349.75
2023-11-16T23:28:17.176Z,98336.08
2023-11-16T23:30:44.218Z,98334.24
2023-11-16T23:33:11.426Z,98333.40
2023-11-16T23:35:38.370Z,98329.73
2023-11-16T23:38:06.685Z,98322.15
2023-11-16T23:40:33.737Z,98317.35
2023-11-16T23:43:00.826Z,98308.60
2023-11-16T23:45:27.800Z,98304.04
2023-11-16T23:47:56.542Z,98303.27
2023-11-16T23:50:59.674Z,98299.36
2023-11-16T23:53:28.429Z,98293.59
2023-11-16T23:55:55.482Z,98289.43
2023-11-16T23:58:22.524Z,98290.60
